createdAt,value
2022-08-20T00:02:10.507Z,12.88
2022-08-20T00:07:07.127Z,14.23
2022-08-20T00:12:04.598Z,9.95
2022-08-20T00:17:01.320Z,11.35
2022-08-20T00:21:58.405Z,13.38
2022-08-20T00:26:54.907Z,9.95
2022-08-20T00:31:51.267Z,10.32
2022-08-20T00:36:47.522Z,10.13
2022-08-20T00:41:43.847Z,12.50
2022-08-20T00:46:40.804Z,9.07
2022-08-20T00:51:39.540Z,8.40
2022-08-20T00:56:36.610Z,7.00
2022-08-20T01:01:34.416Z,7.60
2022-08-20T01:06:49.040Z,8.07
2022-08-20T01:11:45.327Z,7.25
2022-08-20T01:16:43.978Z,6.63
2022-08-20T01:21:40.285Z,6.38
2022-08-20T01:26:42.439Z,7.35
2022-08-20T01:31:40.604Z,6.85
2022-08-20T01:36:48.313Z,5.95
2022-08-20T01:42:03.035Z,6.53
2022-08-20T01:47:08.587Z,6.72
2022-08-20T01:52:07.847Z,6.10
2022-08-20T01:57:13.069Z,7.25
2022-08-20T02:02:09.928Z,7.38
2022-08-20T02:07:08.187Z,6.88
2022-08-20T02:12:06.097Z,5.57
2022-08-20T02:17:02.444Z,7.60
2022-08-20T02:21:59.907Z,8.20
2022-08-20T02:26:56.613Z,10.63
2022-08-20T02:32:24.927Z,5.78
2022-08-20T02:37:13.388Z,8.15
2022-08-20T02:42:09.776Z,6.70
2022-08-20T02:47:06.939Z,5.95
2022-08-20T02:52:03.346Z,6.68
2022-08-20T02:56:59.671Z,8.93
2022-08-20T03:02:00.606Z,13.50
2022-08-20T03:06:58.577Z,13.03
2022-08-20T03:11:54.911Z,13.15
2022-08-20T03:16:51.200Z,13.52
2022-08-20T03:21:47.575Z,14.57
2022-08-20T03:26:44.108Z,12.48
2022-08-20T03:31:40.452Z,15.15
2022-08-20T03:36:36.706Z,14.52
2022-08-20T03:41:33.100Z,16.02
2022-08-20T03:46:29.542Z,16.35
2022-08-20T03:51:25.890Z,20.42
2022-08-20T03:56:22.158Z,19.10
2022-08-20T04:01:45.646Z,27.42
2022-08-20T04:06:34.759Z,18.83
2022-08-20T04:11:33.354Z,17.77
2022-08-20T04:16:29.655Z,17.30
2022-08-20T04:21:26.255Z,15.32
2022-08-20T04:26:29.029Z,16.23
2022-08-20T04:31:25.693Z,12.23
2022-08-20T04:36:22.024Z,15.43
2022-08-20T04:41:23.145Z,15.15
2022-08-20T04:46:20.919Z,15.00
2022-08-20T04:51:18.253Z,12.38
2022-08-20T04:56:15.094Z,13.27
2022-08-20T05:01:11.941Z,15.15
2022-08-20T05:06:09.931Z,13.43
2022-08-20T05:11:35.826Z,12.85
2022-08-20T05:16:24.789Z,12.80
2022-08-20T05:21:21.239Z,11.45
2022-08-20T05:26:19.915Z,15.30
2022-08-20T05:31:16.135Z,15.68
2022-08-20T05:36:12.628Z,20.55
2022-08-20T05:41:11.726Z,15.25
2022-08-20T05:46:23.869Z,18.10
2022-08-20T05:51:20.143Z,15.95
2022-08-20T05:56:16.406Z,13.25
2022-08-20T06:01:13.111Z,15.02
2022-08-20T06:06:18.228Z,13.93
2022-08-20T06:11:26.571Z,13.13
2022-08-20T06:16:22.867Z,15.50
2022-08-20T06:21:25.613Z,17.85
2022-08-20T06:26:24.104Z,16.17
2022-08-20T06:31:27.229Z,14.43
2022-08-20T06:36:24.830Z,13.27
2022-08-20T06:41:21.207Z,12.25
2022-08-20T06:46:18.571Z,13.43
2022-08-20T06:51:14.950Z,15.10
2022-08-20T06:56:11.309Z,11.15
2022-08-20T07:01:09.633Z,12.07
2022-08-20T07:06:07.972Z,15.18
2022-08-20T07:11:04.363Z,12.85
2022-08-20T07:16:00.661Z,11.00
2022-08-20T07:20:57.705Z,10.30
2022-08-20T07:25:55.571Z,9.65
2022-08-20T07:31:13.323Z,11.40
2022-08-20T07:36:11.582Z,5.35
2022-08-20T07:41:09.845Z,7.57
2022-08-20T07:46:10.007Z,8.45
2022-08-20T07:51:07.118Z,7.93
2022-08-20T07:56:05.756Z,5.53
2022-08-20T08:01:02.399Z,8.45
2022-08-20T08:06:00.273Z,7.22
2022-08-20T08:10:59.171Z,9.25
2022-08-20T08:15:57.967Z,6.72
2022-08-20T08:20:54.443Z,6.82
2022-08-20T08:25:52.680Z,7.07
2022-08-20T08:30:49.110Z,6.32
2022-08-20T08:35:47.830Z,7.95
2022-08-20T08:40:44.517Z,5.70
2022-08-20T08:45:43.696Z,7.30
2022-08-20T08:50:54.257Z,7.93
2022-08-20T08:55:50.899Z,7.13
2022-08-20T09:00:56.229Z,8.02
2022-08-20T09:05:55.339Z,7.03
2022-08-20T09:10:51.679Z,5.97
2022-08-20T09:15:48.040Z,6.63
2022-08-20T09:20:44.275Z,10.85
2022-08-20T09:25:41.699Z,7.78
2022-08-20T09:30:38.049Z,7.30
2022-08-20T09:35:34.697Z,10.18
2022-08-20T09:40:31.164Z,11.65
2022-08-20T09:45:27.496Z,7.03
2022-08-20T09:50:25.762Z,10.00
2022-08-20T09:55:22.129Z,10.25
2022-08-20T10:00:19.051Z,8.95
2022-08-20T10:05:15.441Z,8.80
2022-08-20T10:10:13.841Z,8.23
2022-08-20T10:15:10.587Z,9.38
2022-08-20T10:20:08.647Z,8.10
2022-08-20T10:25:05.418Z,11.10
2022-08-20T10:30:01.885Z,10.73
2022-08-20T10:34:58.221Z,9.15
2022-08-20T10:39:55.815Z,8.48
2022-08-20T10:44:52.222Z,8.07
2022-08-20T10:49:49.781Z,9.02
2022-08-20T10:54:46.267Z,7.97
2022-08-20T10:59:43.698Z,8.88
2022-08-20T11:04:40.990Z,7.80
2022-08-20T11:09:37.340Z,8.35
2022-08-20T11:14:33.877Z,9.52
2022-08-20T11:19:30.515Z,10.00
2022-08-20T11:24:26.843Z,9.45
2022-08-20T11:29:24.633Z,12.20
2022-08-20T11:34:20.902Z,8.73
2022-08-20T11:39:17.475Z,7.60
2022-08-20T11:44:21.764Z,6.63
2022-08-20T11:49:18.204Z,10.82
2022-08-20T11:54:14.545Z,11.25
2022-08-20T11:59:11.663Z,10.10
2022-08-20T12:04:08.318Z,9.65
2022-08-20T12:09:04.650Z,7.25
2022-08-20T12:14:00.902Z,10.18
2022-08-20T12:18:57.180Z,9.95
2022-08-20T12:23:53.588Z,9.50
2022-08-20T12:28:49.862Z,9.68
2022-08-20T12:33:46.126Z,10.20
2022-08-20T12:38:42.467Z,10.40
2022-08-20T12:43:38.836Z,7.63
2022-08-20T12:48:35.176Z,8.57
2022-08-20T12:53:31.436Z,8.25
2022-08-20T12:58:27.881Z,7.70
2022-08-20T13:03:24.258Z,7.97
2022-08-20T13:08:20.576Z,8.63
2022-08-20T13:13:20.221Z,9.23
2022-08-20T13:18:17.451Z,7.38
2022-08-20T13:23:13.915Z,9.52
2022-08-20T13:28:10.256Z,7.43
2022-08-20T13:33:06.658Z,7.47
2022-08-20T13:38:03.086Z,7.55
2022-08-20T13:43:05.962Z,8.52
2022-08-20T13:48:03.636Z,7.78
2022-08-20T13:53:00.928Z,7.63
2022-08-20T13:58:03.682Z,9.90
2022-08-20T14:03:01.329Z,7.35
2022-08-20T14:08:05.024Z,10.30
2022-08-20T14:13:03.182Z,7.70
2022-08-20T14:17:59.496Z,6.15
2022-08-20T14:22:56.048Z,8.27
2022-08-20T14:27:52.947Z,7.78
2022-08-20T14:32:49.408Z,6.55
2022-08-20T14:37:52.159Z,7.28
2022-08-20T14:42:51.459Z,7.75
2022-08-20T14:47:53.509Z,11.30
2022-08-20T14:52:50.818Z,8.32
2022-08-20T14:57:47.320Z,6.55
2022-08-20T15:02:44.093Z,8.27
2022-08-20T15:07:41.449Z,8.55
2022-08-20T15:12:37.983Z,6.80
2022-08-20T15:17:34.480Z,7.18
2022-08-20T15:22:30.752Z,7.93
2022-08-20T15:27:27.375Z,7.30
2022-08-20T15:32:23.763Z,7.97
2022-08-20T15:37:21.771Z,9.05
2022-08-20T15:42:19.002Z,7.60
2022-08-20T15:47:20.521Z,5.93
2022-08-20T15:52:17.171Z,5.97
2022-08-20T15:57:22.566Z,6.40
2022-08-20T16:02:42.081Z,7.20
2022-08-20T16:07:41.447Z,7.78
2022-08-20T16:12:42.851Z,7.05
2022-08-20T16:17:47.510Z,8.93
2022-08-20T16:22:45.067Z,7.45
2022-08-20T16:28:01.382Z,5.85
2022-08-20T16:33:02.364Z,6.05
2022-08-20T16:38:04.503Z,7.97
2022-08-20T16:43:03.271Z,7.50
2022-08-20T16:48:01.743Z,7.93
2022-08-20T16:52:58.345Z,6.13
2022-08-20T16:57:55.262Z,7.25
2022-08-20T17:02:58.794Z,7.03
2022-08-20T17:07:59.577Z,7.10
2022-08-20T17:13:00.065Z,7.40
2022-08-20T17:17:56.736Z,25.42
2022-08-20T17:23:08.320Z,8.27
2022-08-20T17:28:15.455Z,6.00
2022-08-20T17:33:22.219Z,6.60
2022-08-20T17:38:27.914Z,9.30
2022-08-20T17:43:32.084Z,7.00
2022-08-20T17:48:32.871Z,8.60
2022-08-20T17:53:31.713Z,9.52
2022-08-20T17:58:54.284Z,8.77
2022-08-20T18:03:52.676Z,6.45
2022-08-20T18:09:07.618Z,5.95
2022-08-20T18:14:06.753Z,6.85
2022-08-20T18:19:10.867Z,7.25
2022-08-20T18:24:07.200Z,9.63
2022-08-20T18:29:09.631Z,6.00
2022-08-20T18:34:32.188Z,6.03
2022-08-20T18:39:29.650Z,5.93
2022-08-20T18:44:40.050Z,5.95
2022-08-20T18:49:40.653Z,7.13
2022-08-20T18:54:37.231Z,6.63
2022-08-20T18:59:38.909Z,7.15
2022-08-20T19:04:35.262Z,6.38
2022-08-20T19:09:37.782Z,5.70
2022-08-20T19:14:39.981Z,7.90
2022-08-20T19:24:35.500Z,6.85
2022-08-20T19:29:43.072Z,6.70
2022-08-20T19:34:39.430Z,5.30
2022-08-20T19:39:36.200Z,7.32
2022-08-20T19:44:32.628Z,8.95
2022-08-20T19:49:32.750Z,5.63
2022-08-20T19:54:29.540Z,7.57
2022-08-20T19:59:26.161Z,6.57
2022-08-20T20:04:25.815Z,5.32
2022-08-20T20:09:26.351Z,7.07
2022-08-20T20:14:26.426Z,7.80
2022-08-20T20:19:26.741Z,9.23
2022-08-20T20:24:25.791Z,8.43
2022-08-20T20:29:26.874Z,6.25
2022-08-20T20:34:27.967Z,9.85
2022-08-20T20:39:24.794Z,8.53
2022-08-20T20:44:36.968Z,10.40
2022-08-20T20:49:53.867Z,9.85
2022-08-20T20:54:50.695Z,7.82
2022-08-20T20:59:51.576Z,8.20
2022-08-20T21:04:49.415Z,9.93
2022-08-20T21:09:45.797Z,8.80
2022-08-20T21:14:42.275Z,7.13
2022-08-20T21:19:44.979Z,7.97
2022-08-20T21:24:41.702Z,7.90
2022-08-20T21:29:38.230Z,8.95
2022-08-20T21:34:34.500Z,9.45
2022-08-20T21:39:30.875Z,10.77
2022-08-20T21:44:29.629Z,9.98
2022-08-20T21:49:26.486Z,10.90
2022-08-20T21:54:23.177Z,8.48
2022-08-20T21:59:20.264Z,8.73
2022-08-20T22:04:16.592Z,9.00
2022-08-20T22:09:13.206Z,8.45
2022-08-20T22:14:10.177Z,7.93
2022-08-20T22:19:06.465Z,9.32
2022-08-20T22:24:04.068Z,9.18
2022-08-20T22:29:00.673Z,8.40
2022-08-20T22:33:57.158Z,8.65
2022-08-20T22:38:54.670Z,8.20
2022-08-20T22:43:56.388Z,8.20
2022-08-20T22:48:53.357Z,8.40
2022-08-20T22:53:49.950Z,8.05
2022-08-20T22:58:46.305Z,10.20
2022-08-20T23:03:46.585Z,6.75
2022-08-20T23:08:43.978Z,8.65
2022-08-20T23:13:40.235Z,9.07
2022-08-20T23:18:36.496Z,8.13
2022-08-20T23:23:32.763Z,9.80
2022-08-20T23:28:29.124Z,8.55
2022-08-20T23:33:25.555Z,8.98
2022-08-20T23:38:21.861Z,8.85
2022-08-20T23:43:18.697Z,7.78
2022-08-20T23:48:14.975Z,14.15
2022-08-20T23:53:11.656Z,9.32
2022-08-20T23:58:08.443Z,8.80
